createdAt,value
2022-12-09T00:00:07.614Z,16.02
2022-12-09T00:02:34.710Z,16.52
2022-12-09T00:05:01.574Z,16.27
2022-12-09T00:07:28.496Z,17.38
2022-12-09T00:09:54.977Z,18.67
2022-12-09T00:12:21.489Z,18.75
2022-12-09T00:14:48.027Z,18.23
2022-12-09T00:17:14.825Z,16.55
2022-12-09T00:19:41.440Z,14.73
2022-12-09T00:22:07.909Z,16.33
2022-12-09T00:24:34.387Z,17.77
2022-12-09T00:27:01.032Z,14.32
2022-12-09T00:29:27.523Z,18.35
2022-12-09T00:31:54.061Z,14.90
2022-12-09T00:34:20.989Z,16.17
2022-12-09T00:36:47.688Z,16.67
2022-12-09T00:39:14.323Z,16.08
2022-12-09T00:41:40.890Z,16.27
2022-12-09T00:44:07.456Z,14.15
2022-12-09T00:46:34.109Z,14.85
2022-12-09T00:49:01.126Z,15.73
2022-12-09T00:51:27.651Z,14.18
2022-12-09T00:53:55.908Z,11.32
2022-12-09T00:56:25.011Z,13.10
2022-12-09T00:58:52.345Z,14.90
2022-12-09T01:01:18.871Z,15.75
2022-12-09T01:03:45.946Z,17.15
2022-12-09T01:06:18.129Z,15.73
2022-12-09T01:08:45.954Z,10.93
2022-12-09T01:11:22.524Z,14.32
2022-12-09T01:13:51.255Z,13.32
2022-12-09T01:16:25.530Z,12.50
2022-12-09T01:18:55.354Z,12.80
2022-12-09T01:21:21.804Z,12.13
2022-12-09T01:23:48.242Z,9.75
2022-12-09T01:26:14.889Z,12.38
2022-12-09T01:28:42.519Z,12.85
2022-12-09T01:31:17.868Z,15.50
2022-12-09T01:33:45.342Z,17.90
2022-12-09T01:36:18.657Z,16.98
2022-12-09T01:38:47.241Z,16.92
2022-12-09T01:41:16.575Z,16.98
2022-12-09T01:43:43.509Z,16.58
2022-12-09T01:46:10.577Z,15.00
2022-12-09T01:48:42.872Z,12.65
2022-12-09T01:51:19.771Z,12.52
2022-12-09T01:53:50.768Z,11.13
2022-12-09T01:56:25.527Z,15.40
2022-12-09T01:58:57.638Z,11.70
2022-12-09T02:01:24.527Z,10.88
2022-12-09T02:03:51.607Z,15.70
2022-12-09T02:06:19.084Z,15.02
2022-12-09T02:08:48.810Z,14.20
2022-12-09T02:11:52.072Z,12.20
2022-12-09T02:14:27.852Z,14.10
2022-12-09T02:17:21.421Z,12.03
2022-12-09T02:20:07.201Z,12.52
2022-12-09T02:23:12.968Z,13.90
2022-12-09T02:25:48.160Z,12.05
2022-12-09T02:29:03.721Z,15.18
2022-12-09T02:32:14.278Z,13.88
2022-12-09T02:34:55.369Z,13.63
2022-12-09T02:37:35.720Z,14.30
2022-12-09T02:40:13.519Z,21.17
2022-12-09T02:42:42.619Z,16.20
2022-12-09T02:45:11.711Z,20.65
2022-12-09T02:47:47.317Z,54.83
2022-12-09T02:50:19.550Z,35.08
2022-12-09T02:52:48.556Z,33.05
2022-12-09T02:55:19.342Z,38.63
2022-12-09T02:57:52.759Z,22.80
2022-12-09T03:00:19.879Z,16.45
2022-12-09T03:02:54.461Z,29.73
2022-12-09T03:05:36.720Z,33.88
2022-12-09T03:08:15.731Z,64.53
2022-12-09T03:11:01.135Z,99.30
2022-12-09T03:13:52.748Z,81.00
2022-12-09T03:16:41.020Z,99.22
2022-12-09T03:19:23.037Z,75.57
2022-12-09T03:21:55.949Z,128.45
2022-12-09T03:24:32.662Z,110.10
2022-12-09T03:27:06.569Z,133.07
2022-12-09T03:29:38.819Z,41.58
2022-12-09T03:32:09.142Z,115.10
2022-12-09T03:34:42.384Z,86.22
2022-12-09T03:37:12.132Z,103.63
2022-12-09T03:39:42.428Z,58.47
2022-12-09T03:42:21.380Z,93.85
2022-12-09T03:45:00.423Z,91.38
2022-12-09T03:47:27.813Z,144.20
2022-12-09T03:49:55.314Z,82.93
2022-12-09T03:52:58.821Z,52.15
2022-12-09T03:55:46.373Z,36.58
2022-12-09T03:58:15.889Z,40.25
2022-12-09T04:00:43.837Z,42.58
2022-12-09T04:03:14.759Z,19.25
2022-12-09T04:05:43.218Z,35.72
2022-12-09T04:08:10.759Z,32.40
2022-12-09T04:10:37.402Z,45.33
2022-12-09T04:13:04.005Z,37.28
2022-12-09T04:15:30.980Z,35.53
2022-12-09T04:17:57.530Z,24.63
2022-12-09T04:20:24.033Z,34.65
2022-12-09T04:22:50.537Z,24.83
2022-12-09T04:25:17.503Z,44.25
2022-12-09T04:27:44.308Z,60.35
2022-12-09T04:30:11.983Z,29.30
2022-12-09T04:32:38.951Z,29.95
2022-12-09T04:35:06.268Z,11.50
2022-12-09T04:37:33.382Z,11.90
2022-12-09T04:40:00.241Z,11.52
2022-12-09T04:42:29.049Z,13.02
2022-12-09T04:44:55.866Z,10.05
2022-12-09T04:47:22.439Z,9.93
2022-12-09T04:49:49.688Z,12.10
2022-12-09T04:52:19.895Z,11.70
2022-12-09T04:54:46.443Z,11.57
2022-12-09T04:57:13.140Z,10.27
2022-12-09T04:59:39.629Z,11.15
2022-12-09T05:02:06.480Z,10.13
2022-12-09T05:04:33.650Z,10.13
2022-12-09T05:07:00.453Z,10.68
2022-12-09T05:09:27.398Z,11.23
2022-12-09T05:11:58.122Z,8.38
2022-12-09T05:14:25.260Z,9.02
2022-12-09T05:16:52.268Z,9.52
2022-12-09T05:19:18.906Z,9.65
2022-12-09T05:21:46.417Z,11.13
2022-12-09T05:24:13.178Z,11.45
2022-12-09T05:26:40.050Z,11.05
2022-12-09T05:29:07.015Z,12.35
2022-12-09T05:31:33.628Z,8.10
2022-12-09T05:34:00.767Z,10.65
2022-12-09T05:36:27.804Z,10.38
2022-12-09T05:38:55.471Z,13.15
2022-12-09T05:41:23.813Z,11.85
2022-12-09T05:43:51.962Z,11.45
2022-12-09T05:46:19.337Z,8.95
2022-12-09T05:48:54.830Z,9.25
2022-12-09T05:51:28.102Z,10.63
2022-12-09T05:54:00.161Z,10.23
2022-12-09T05:56:27.455Z,11.00
2022-12-09T05:58:55.439Z,10.30
2022-12-09T06:01:23.633Z,11.93
2022-12-09T06:03:52.104Z,9.88
2022-12-09T06:06:22.945Z,8.25
2022-12-09T06:08:50.129Z,11.45
2022-12-09T06:11:34.896Z,9.07
2022-12-09T06:14:01.576Z,8.48
2022-12-09T06:16:29.279Z,9.48
2022-12-09T06:18:56.172Z,9.35
2022-12-09T06:21:23.661Z,9.65
2022-12-09T06:23:51.582Z,14.82
2022-12-09T06:26:29.912Z,8.32
2022-12-09T06:28:57.585Z,11.18
2022-12-09T06:31:26.009Z,8.45
2022-12-09T06:33:55.904Z,8.02
2022-12-09T06:36:26.086Z,9.38
2022-12-09T06:38:53.299Z,9.02
2022-12-09T06:41:20.113Z,8.75
2022-12-09T06:43:46.825Z,12.82
2022-12-09T06:46:21.231Z,15.27
2022-12-09T06:48:48.160Z,11.07
2022-12-09T06:51:17.056Z,12.50
2022-12-09T06:53:44.927Z,11.90
2022-12-09T06:56:13.658Z,12.65
2022-12-09T06:58:45.857Z,10.45
2022-12-09T07:01:14.221Z,10.90
2022-12-09T07:03:44.129Z,14.57
2022-12-09T07:06:37.315Z,11.95
2022-12-09T07:09:17.832Z,11.90
2022-12-09T07:11:51.479Z,14.32
2022-12-09T07:14:20.260Z,11.68
2022-12-09T07:16:47.998Z,11.82
2022-12-09T07:19:21.289Z,11.20
2022-12-09T07:21:49.650Z,12.65
2022-12-09T07:24:19.236Z,14.68
2022-12-09T07:26:46.378Z,11.68
2022-12-09T07:29:12.979Z,12.57
2022-12-09T07:31:39.949Z,11.77
2022-12-09T07:34:07.206Z,11.95
2022-12-09T07:36:35.821Z,12.85
2022-12-09T07:39:07.596Z,16.38
2022-12-09T07:41:34.696Z,16.58
2022-12-09T07:44:01.384Z,17.65
2022-12-09T07:46:28.563Z,17.27
2022-12-09T07:48:57.384Z,23.17
2022-12-09T07:51:26.000Z,15.88
2022-12-09T07:53:53.802Z,15.25
2022-12-09T07:56:22.386Z,17.05
2022-12-09T07:58:53.171Z,14.80
2022-12-09T08:01:24.675Z,15.27
2022-12-09T08:03:52.397Z,19.02
2022-12-09T08:06:22.906Z,16.45
2022-12-09T08:08:51.136Z,15.50
2022-12-09T08:11:22.562Z,17.17
2022-12-09T08:13:50.302Z,14.73
2022-12-09T08:16:21.489Z,14.85
2022-12-09T08:18:49.865Z,15.90
2022-12-09T08:21:30.719Z,19.95
2022-12-09T08:24:03.167Z,22.77
2022-12-09T08:26:37.544Z,17.23
2022-12-09T08:29:11.117Z,15.40
2022-12-09T08:31:41.595Z,17.45
2022-12-09T08:34:09.134Z,21.50
2022-12-09T08:36:37.016Z,19.85
2022-12-09T08:39:04.232Z,19.08
2022-12-09T08:41:38.950Z,17.98
2022-12-09T08:44:13.656Z,16.58
2022-12-09T08:46:44.522Z,18.80
2022-12-09T08:49:12.721Z,16.70
2022-12-09T08:51:39.863Z,14.13
2022-12-09T08:54:06.961Z,18.38
2022-12-09T08:56:34.367Z,30.52
2022-12-09T08:59:01.351Z,32.60
2022-12-09T09:01:35.813Z,22.50
2022-12-09T09:04:08.561Z,17.58
2022-12-09T09:06:39.414Z,17.42
2022-12-09T09:09:09.284Z,27.23
2022-12-09T09:11:40.373Z,25.77
2022-12-09T09:14:10.180Z,26.63
2022-12-09T09:16:40.837Z,25.13
2022-12-09T09:19:08.917Z,65.05
2022-12-09T09:21:36.087Z,50.45
2022-12-09T09:24:10.363Z,20.50
2022-12-09T09:26:41.803Z,13.45
2022-12-09T09:29:12.596Z,16.75
2022-12-09T09:31:39.956Z,12.23
2022-12-09T09:34:07.387Z,12.23
2022-12-09T09:36:34.712Z,13.23
2022-12-09T09:39:01.541Z,12.05
2022-12-09T09:41:40.239Z,15.10
2022-12-09T09:44:25.647Z,12.23
2022-12-09T09:46:56.543Z,17.15
2022-12-09T09:49:45.673Z,17.60
2022-12-09T09:52:23.313Z,18.95
2022-12-09T09:54:52.013Z,17.85
2022-12-09T09:57:27.622Z,16.70
2022-12-09T10:00:22.877Z,21.02
2022-12-09T10:03:10.636Z,17.90
2022-12-09T10:06:22.798Z,22.70
2022-12-09T10:09:19.844Z,18.38
2022-12-09T10:12:17.602Z,17.27
2022-12-09T10:15:18.845Z,41.08
2022-12-09T10:18:14.583Z,18.20
2022-12-09T10:20:42.477Z,17.55
2022-12-09T10:23:16.434Z,16.98
2022-12-09T10:25:58.360Z,17.85
2022-12-09T10:28:37.993Z,18.60
2022-12-09T10:31:05.371Z,15.90
2022-12-09T10:33:37.437Z,15.02
2022-12-09T10:36:07.751Z,22.73
2022-12-09T10:38:41.264Z,21.88
2022-12-09T10:41:52.524Z,16.08
2022-12-09T10:44:24.078Z,9.50
2022-12-09T10:47:30.877Z,12.80
2022-12-09T10:49:59.374Z,21.17
2022-12-09T10:52:37.020Z,58.60
2022-12-09T10:55:04.433Z,27.92
2022-12-09T10:57:31.299Z,17.42
2022-12-09T11:00:08.745Z,10.45
2022-12-09T11:02:35.936Z,15.20
2022-12-09T11:05:25.477Z,12.07
2022-12-09T11:07:55.252Z,11.80
2022-12-09T11:10:26.810Z,10.73
2022-12-09T11:13:08.285Z,14.18
2022-12-09T11:15:45.241Z,13.02
2022-12-09T11:18:25.037Z,12.82
2022-12-09T11:21:06.226Z,10.07
2022-12-09T11:23:35.706Z,8.98
2022-12-09T11:26:21.728Z,13.80
2022-12-09T11:29:04.472Z,9.48
2022-12-09T11:31:38.214Z,12.18
2022-12-09T11:34:23.088Z,69.68
2022-12-09T11:36:57.692Z,16.60
2022-12-09T11:39:35.421Z,7.93
2022-12-09T11:42:20.675Z,20.85
2022-12-09T11:45:01.909Z,9.02
2022-12-09T11:48:21.166Z,8.75
2022-12-09T11:50:34.344Z,21.90
2022-12-09T11:53:11.431Z,16.55
2022-12-09T11:56:15.917Z,27.40
2022-12-09T11:58:50.244Z,10.43
2022-12-09T12:02:01.378Z,11.63
2022-12-09T12:04:40.120Z,8.35
2022-12-09T12:07:18.021Z,16.75
2022-12-09T12:09:57.325Z,10.20
2022-12-09T12:13:20.044Z,7.45
2022-12-09T12:16:07.265Z,6.15
2022-12-09T12:21:31.953Z,5.18
2022-12-09T12:24:04.450Z,4.80
2022-12-09T12:27:11.856Z,6.93
2022-12-09T12:30:02.595Z,6.72
2022-12-09T12:32:41.148Z,8.60
2022-12-09T12:35:45.919Z,16.00
2022-12-09T12:38:30.366Z,10.75
2022-12-09T12:41:22.053Z,8.13
2022-12-09T12:44:38.039Z,5.82
2022-12-09T12:47:33.098Z,5.53
2022-12-09T12:50:34.868Z,5.75
2022-12-09T12:53:18.500Z,4.40
2022-12-09T12:55:51.377Z,5.50
2022-12-09T12:59:01.645Z,6.40
2022-12-09T13:01:55.754Z,5.07
2022-12-09T13:04:40.820Z,6.30
2022-12-09T13:07:33.573Z,5.53
2022-12-09T13:10:14.888Z,10.57
2022-12-09T13:12:54.549Z,4.70
2022-12-09T13:15:33.520Z,6.00
2022-12-09T13:18:15.033Z,4.85
2022-12-09T13:20:53.683Z,5.72
2022-12-09T13:24:08.485Z,9.15
2022-12-09T13:27:19.446Z,6.15
2022-12-09T13:30:02.973Z,4.68
2022-12-09T13:33:18.289Z,6.30
2022-12-09T13:36:06.093Z,5.03
2022-12-09T13:38:36.362Z,5.75
2022-12-09T13:41:30.576Z,8.40
2022-12-09T13:44:09.677Z,10.30
2022-12-09T13:46:36.531Z,14.25
2022-12-09T13:49:24.568Z,12.63
2022-12-09T13:51:54.887Z,13.43
2022-12-09T13:54:28.506Z,13.65
2022-12-09T13:57:06.857Z,17.17
2022-12-09T13:59:52.789Z,15.38
2022-12-09T14:02:31.398Z,15.88
2022-12-09T14:05:11.993Z,16.20
2022-12-09T14:07:50.247Z,17.38
2022-12-09T14:10:37.776Z,19.42
2022-12-09T14:13:24.165Z,17.20
2022-12-09T14:16:45.112Z,20.30
2022-12-09T14:19:23.671Z,16.52
2022-12-09T14:22:25.128Z,17.08
2022-12-09T14:25:19.044Z,13.15
2022-12-09T14:28:10.090Z,12.13
2022-12-09T14:30:48.891Z,9.25
2022-12-09T14:33:33.498Z,14.70
2022-12-09T14:36:26.081Z,11.40
2022-12-09T14:39:26.001Z,9.02
2022-12-09T14:42:06.140Z,9.20
2022-12-09T14:44:59.537Z,16.20
2022-12-09T14:47:33.036Z,12.60
2022-12-09T14:50:16.901Z,11.50
2022-12-09T14:53:03.033Z,7.63
2022-12-09T14:55:36.843Z,6.95
2022-12-09T14:58:04.513Z,7.25
2022-12-09T15:00:40.743Z,6.93
2022-12-09T15:03:45.271Z,6.95
2022-12-09T15:06:18.623Z,11.20
2022-12-09T15:08:46.781Z,19.10
2022-12-09T15:11:17.392Z,6.88
2022-12-09T15:13:47.964Z,6.32
2022-12-09T15:16:23.985Z,6.75
2022-12-09T15:18:53.533Z,6.55
2022-12-09T15:21:31.717Z,7.32
2022-12-09T15:24:00.797Z,6.35
2022-12-09T15:26:32.098Z,6.30
2022-12-09T15:29:00.986Z,6.05
2022-12-09T15:31:30.644Z,9.25
2022-12-09T15:34:01.016Z,8.20
2022-12-09T15:36:35.722Z,8.57
2022-12-09T15:39:11.164Z,9.45
2022-12-09T15:42:03.547Z,8.23
2022-12-09T15:44:39.623Z,8.43
2022-12-09T15:47:24.670Z,6.70
2022-12-09T15:50:03.680Z,7.03
2022-12-09T15:52:41.588Z,8.50
2022-12-09T15:55:17.246Z,8.50
2022-12-09T15:57:45.517Z,11.85
2022-12-09T16:00:13.356Z,7.43
2022-12-09T16:02:41.153Z,8.38
2022-12-09T16:05:10.239Z,8.27
2022-12-09T16:07:38.223Z,7.60
2022-12-09T16:10:12.545Z,7.75
2022-12-09T16:12:41.326Z,7.70
2022-12-09T16:15:12.134Z,9.75
2022-12-09T16:17:55.061Z,9.35
2022-12-09T16:20:36.020Z,10.43
2022-12-09T16:23:05.739Z,10.68
2022-12-09T16:25:43.312Z,9.18
2022-12-09T16:28:24.616Z,16.13
2022-12-09T16:31:00.590Z,16.13
2022-12-09T16:33:31.790Z,14.48
2022-12-09T16:36:06.526Z,13.82
2022-12-09T16:38:35.481Z,12.38
2022-12-09T16:41:10.909Z,13.10
2022-12-09T16:43:57.923Z,14.57
2022-12-09T16:46:27.513Z,11.02
2022-12-09T16:48:54.045Z,10.00
2022-12-09T16:51:24.991Z,10.27
2022-12-09T16:53:54.132Z,12.02
2022-12-09T16:56:27.832Z,9.70
2022-12-09T16:58:55.761Z,10.52
2022-12-09T17:01:31.818Z,9.57
2022-12-09T17:04:10.396Z,8.10
2022-12-09T17:06:36.879Z,8.85
2022-12-09T17:09:03.800Z,8.48
2022-12-09T17:11:30.308Z,9.35
2022-12-09T17:13:56.849Z,9.52
2022-12-09T17:16:25.821Z,9.57
2022-12-09T17:18:52.862Z,9.25
2022-12-09T17:21:19.980Z,9.75
2022-12-09T17:23:47.604Z,10.13
2022-12-09T17:26:18.146Z,11.05
2022-12-09T17:28:45.991Z,8.80
2022-12-09T17:31:20.343Z,9.80
2022-12-09T17:33:47.629Z,8.63
2022-12-09T17:36:16.163Z,10.13
2022-12-09T17:38:43.578Z,9.18
2022-12-09T17:41:18.797Z,8.77
2022-12-09T17:43:46.279Z,8.82
2022-12-09T17:46:13.816Z,9.00
2022-12-09T17:48:41.688Z,10.52
2022-12-09T17:51:12.651Z,9.15
2022-12-09T17:53:47.892Z,10.13
2022-12-09T17:56:25.917Z,9.65
2022-12-09T17:59:04.629Z,9.57
2022-12-09T18:01:33.856Z,8.98
2022-12-09T18:04:06.386Z,9.23
2022-12-09T18:06:39.700Z,10.80
2022-12-09T18:09:12.521Z,10.40
2022-12-09T18:11:39.623Z,8.93
2022-12-09T18:14:07.720Z,11.38
2022-12-09T18:16:34.474Z,12.57
2022-12-09T18:19:15.330Z,24.55
2022-12-09T18:21:43.399Z,10.48
2022-12-09T18:24:10.602Z,9.85
2022-12-09T18:26:41.578Z,9.27
2022-12-09T18:29:14.375Z,8.40
2022-12-09T18:31:42.061Z,9.18
2022-12-09T18:34:08.635Z,9.27
2022-12-09T18:36:35.252Z,9.57
2022-12-09T18:39:07.269Z,8.50
2022-12-09T18:41:34.494Z,9.07
2022-12-09T18:44:06.351Z,9.85
2022-12-09T18:46:37.253Z,8.55
2022-12-09T18:49:07.345Z,8.57
2022-12-09T18:51:34.623Z,9.02
2022-12-09T18:54:03.657Z,9.10
2022-12-09T18:56:30.446Z,10.20
2022-12-09T18:59:06.552Z,8.52
2022-12-09T19:01:38.748Z,8.93
2022-12-09T19:04:07.249Z,9.38
2022-12-09T19:06:37.955Z,10.38
2022-12-09T19:09:17.799Z,8.95
2022-12-09T19:11:46.464Z,7.88
2022-12-09T19:14:15.289Z,8.07
2022-12-09T19:16:43.005Z,7.75
2022-12-09T19:19:17.020Z,6.93
2022-12-09T19:21:44.528Z,6.65
2022-12-09T19:24:18.797Z,6.72
2022-12-09T19:26:45.819Z,7.57
2022-12-09T19:29:14.501Z,8.38
2022-12-09T19:31:44.944Z,7.93
2022-12-09T19:34:20.029Z,7.40
2022-12-09T19:36:51.833Z,7.80
2022-12-09T19:39:38.377Z,8.13
2022-12-09T19:42:05.316Z,9.77
2022-12-09T19:44:59.733Z,9.20
2022-12-09T19:47:18.316Z,8.60
2022-12-09T19:49:44.883Z,7.75
2022-12-09T19:52:12.313Z,7.45
2022-12-09T19:54:39.080Z,7.75
2022-12-09T19:57:05.553Z,7.55
2022-12-09T19:59:32.062Z,8.80
2022-12-09T20:01:58.644Z,10.55
2022-12-09T20:04:48.153Z,11.07
2022-12-09T20:07:13.023Z,10.52
2022-12-09T20:09:39.681Z,10.65
2022-12-09T20:12:06.325Z,10.98
2022-12-09T20:14:33.013Z,11.10
2022-12-09T20:16:59.529Z,11.38
2022-12-09T20:19:33.513Z,9.52
2022-12-09T20:22:00.012Z,9.60
2022-12-09T20:24:26.710Z,12.05
2022-12-09T20:26:53.233Z,13.32
2022-12-09T20:31:55.986Z,16.25
2022-12-09T20:34:24.775Z,18.63
2022-12-09T20:36:51.362Z,12.82
2022-12-09T20:39:21.135Z,14.20
2022-12-09T20:41:48.556Z,12.30
2022-12-09T20:44:16.706Z,14.20
2022-12-09T20:46:50.231Z,17.63
2022-12-09T20:49:20.074Z,25.83
2022-12-09T20:51:49.110Z,32.35
2022-12-09T20:54:16.231Z,23.95
2022-12-09T20:56:42.792Z,18.38
2022-12-09T20:59:13.399Z,17.00
2022-12-09T21:01:40.550Z,14.88
2022-12-09T21:04:08.250Z,17.88
2022-12-09T21:06:38.608Z,14.70
2022-12-09T21:09:10.039Z,15.63
2022-12-09T21:11:37.084Z,14.52
2022-12-09T21:14:06.652Z,14.55
2022-12-09T21:16:39.249Z,12.93
2022-12-09T21:19:10.226Z,13.70
2022-12-09T21:21:42.703Z,12.98
2022-12-09T21:24:14.830Z,12.98
2022-12-09T21:26:41.771Z,12.70
2022-12-09T21:29:10.939Z,14.32
2022-12-09T21:31:40.872Z,12.77
2022-12-09T21:34:10.715Z,19.25
2022-12-09T21:36:43.590Z,12.25
2022-12-09T21:39:15.791Z,14.10
2022-12-09T21:41:43.545Z,13.85
2022-12-09T21:44:15.982Z,14.57
2022-12-09T21:46:42.983Z,13.43
2022-12-09T21:49:10.309Z,15.70
2022-12-09T21:51:36.803Z,15.65
2022-12-09T21:54:04.517Z,14.85
2022-12-09T21:56:34.950Z,15.43
2022-12-09T21:59:03.236Z,14.50
2022-12-09T22:01:41.953Z,16.55
2022-12-09T22:04:15.946Z,15.88
2022-12-09T22:06:49.912Z,14.93
2022-12-09T22:09:20.552Z,18.00
2022-12-09T22:11:50.610Z,18.38
2022-12-09T22:14:17.486Z,19.20
2022-12-09T22:16:46.176Z,17.35
2022-12-09T22:19:18.277Z,16.42
2022-12-09T22:21:45.683Z,20.95
2022-12-09T22:24:13.053Z,18.83
2022-12-09T22:26:40.151Z,17.27
2022-12-09T22:29:07.852Z,17.55
2022-12-09T22:31:37.955Z,18.85
2022-12-09T22:34:13.370Z,19.17
2022-12-09T22:36:41.057Z,19.23
2022-12-09T22:39:12.023Z,19.10
2022-12-09T22:41:38.560Z,20.20
2022-12-09T22:44:05.200Z,19.75
2022-12-09T22:46:33.775Z,21.95
2022-12-09T22:49:04.861Z,19.10
2022-12-09T22:51:36.173Z,18.38
2022-12-09T22:54:07.978Z,18.23
2022-12-09T22:56:39.503Z,18.38
2022-12-09T22:59:06.896Z,16.33
2022-12-09T23:01:37.196Z,18.23
2022-12-09T23:04:06.708Z,18.77
2022-12-09T23:06:36.993Z,18.20
2022-12-09T23:09:07.003Z,17.30
2022-12-09T23:11:34.174Z,19.58
2022-12-09T23:14:01.188Z,22.00
2022-12-09T23:16:28.591Z,19.17
2022-12-09T23:18:57.567Z,22.95
2022-12-09T23:21:33.697Z,20.10
2022-12-09T23:24:05.623Z,22.35
2022-12-09T23:26:36.926Z,25.00
2022-12-09T23:29:06.927Z,22.95
2022-12-09T23:31:36.513Z,26.27
2022-12-09T23:34:08.313Z,24.77
2022-12-09T23:36:39.328Z,24.30
2022-12-09T23:39:10.938Z,25.05
2022-12-09T23:41:39.974Z,27.73
2022-12-09T23:44:13.031Z,24.17
2022-12-09T23:46:39.887Z,23.35
2022-12-09T23:49:07.516Z,21.23
2022-12-09T23:51:38.261Z,21.27
2022-12-09T23:54:07.147Z,23.65
2022-12-09T23:56:39.444Z,24.85
2022-12-09T23:59:10.671Z,21.98
